Currie, Texas
Current Conditions -  °F | °C
As of 10:15 AM on Wednesday 26 Nov 2014 (Local Time) from KLXY Reporting Station
Clear Clear  
Wind Chill: 14°   Ceiling: Unl
Heat Index: 14°   Visibility: 10mi
Dew Point:   Wind: 16mph
Humidity: 40%   Direction: 240°WSW
Pressure: 30.17"   Gusts: 22mph
Location:  31.7923°N, 96.3714°W
Report Text: KLXY 261615Z AUTO 24014G19KT 10SM CLR 14/00 A3017 RMK AO2 T01350002
Loading
Personal Weather Stations






























Interactive Weather Map New forecast layout! Learn more

10-Day Weather Forecast

Advertisements
Track Severe Weather on mobile